weather.gov     
National Weather Service

Terminal Aerodrome Forecast
NWS Homepage
This page is being discontinued on March 12, 2014.
The same data is available at this site. Please update your bookmarks.
Thank you, and we apologize for the inconvenience.
Please send an email to SR-SRH.Webmaster@noaa.gov with any concerns.


Current Version
Previous Version:    01  02  03  04  05  06  07  08  09  10  11  12  13  14  15  16  17  18  19  20  21  22  23  24  25  26  27  28  29  30  
   31  32  33  
[Printable]
447
FTUS44 KLZK 310500
TAFLLQ
TAF
KLLQ 310520Z 3106/0106 22008KT P6SM VCSH SCT004 OVC009
      TEMPO 3106/3108 5SM -RA BR BKN004
     FM310800 VRB03KT 5SM BR VCSH OVC007
      TEMPO 3108/3112 2SM BR OVC005
     FM311500 21007KT P6SM SCT007 BKN015
     FM311800 20009KT P6SM SCT035 BKN250=


U.S. Dept. of Commerce
NOAA National Weather Service
1325 East West Highway
Silver Spring, MD 20910
E-mail: w-nws.webmaster@noaa.gov
Page last modified: May 16, 2007
NATIONAL WEATHER SERVICE: for Safety, for Work, for Fun - FOR LIFE